Terminal Aerodrome Forecast
Issued by NWS

Home | Current Version | Previous Version | Text Only | Print | Product List | Glossary On
Versions: 1 2 3 4 5 6 7 8 9 10 11 12 13 14 15 16
000
FTUS42 KMLB 231120
TAFFPR
TAF
KFPR 231120Z 2312/2412 11003KT P6SM VCSH FEW018 SCT250
     FM231400 09006KT P6SM VCSH FEW030 SCT250
      TEMPO 2314/2318 3SM SHRA BKN025
     FM231800 09010KT P6SM VCTS SCT030CB SCT060
     FM232100 11009KT P6SM SCT030 SCT100 BKN250
     FM240000 13006KT P6SM VCSH FEW030 SCT120 BKN250
     FM240600 13003KT P6SM VCSH SCT020 BKN250=

USA.gov is the U.S. government's official web portal to all federal, state and local government web resources and services.